Devizes, United Kingdom
Current Conditions -  °F | °C
As of 12:50 PM on Monday 24 Nov 2014 (Local Time) from EGDM Reporting Station
Clear Clear  
Wind Chill: 43°   Ceiling: Unl
Heat Index: 43°   Visibility: 6mi
Dew Point: 41°   Wind: 2mph
Humidity: 93%   Direction: 10°N
Pressure: 30.33"   Gusts: NA
Location:  51.35°N, 1.99°W
Report Text: EGDM 241250Z 01002KT CAVOK 06/05 Q1027 BLU NOSIG
Loading
Personal Weather Stations






























Interactive Weather Map New forecast layout! Learn more

10-Day Weather Forecast

Advertisements
Track Severe Weather on mobile